createdAt,value
2023-05-20T00:00:49.405Z,65.98
2023-05-20T00:03:20.492Z,66.11
2023-05-20T00:05:51.601Z,66.08
2023-05-20T00:08:22.766Z,65.75
2023-05-20T00:10:55.998Z,66.10
2023-05-20T00:13:26.689Z,66.15
2023-05-20T00:15:57.240Z,66.51
2023-05-20T00:18:27.840Z,66.70
2023-05-20T00:20:58.311Z,66.96
2023-05-20T00:23:28.810Z,67.25
2023-05-20T00:26:02.205Z,67.20
2023-05-20T00:28:32.770Z,67.55
2023-05-20T00:31:03.322Z,67.66
2023-05-20T00:33:34.068Z,67.51
2023-05-20T00:36:04.617Z,67.85
2023-05-20T00:38:35.157Z,68.24
2023-05-20T00:41:08.492Z,68.36
2023-05-20T00:43:39.058Z,68.12
2023-05-20T00:46:09.811Z,67.89
2023-05-20T00:48:46.042Z,67.93
2023-05-20T00:51:18.115Z,68.08
2023-05-20T00:53:48.813Z,68.13
2023-05-20T00:56:22.540Z,68.38
2023-05-20T00:58:53.432Z,68.58
2023-05-20T01:01:24.277Z,68.58
2023-05-20T01:03:55.491Z,68.91
2023-05-20T01:06:26.286Z,69.27
2023-05-20T01:08:56.868Z,69.16
2023-05-20T01:11:37.645Z,69.39
2023-05-20T01:14:12.238Z,69.65
2023-05-20T01:16:43.728Z,69.87
2023-05-20T01:19:30.407Z,69.95
2023-05-20T01:22:02.811Z,69.94
2023-05-20T01:24:36.538Z,69.97
2023-05-20T01:27:10.796Z,69.66
2023-05-20T01:29:41.603Z,69.57
2023-05-20T01:32:20.695Z,69.67
2023-05-20T01:34:54.221Z,70.16
2023-05-20T01:37:26.519Z,70.21
2023-05-20T01:40:08.054Z,70.64
2023-05-20T01:42:40.519Z,70.71
2023-05-20T01:45:12.773Z,70.69
2023-05-20T01:47:43.327Z,70.41
2023-05-20T01:50:14.886Z,70.89
2023-05-20T01:52:45.496Z,71.16
2023-05-20T01:55:22.821Z,71.45
2023-05-20T01:57:53.315Z,71.27
2023-05-20T02:00:24.001Z,71.62
2023-05-20T02:02:54.923Z,71.35
2023-05-20T02:05:25.353Z,71.26
2023-05-20T02:07:55.869Z,71.67
2023-05-20T02:10:29.462Z,71.83
2023-05-20T02:13:00.221Z,71.88
2023-05-20T02:15:30.796Z,71.64
2023-05-20T02:18:01.395Z,72.19
2023-05-20T02:20:32.858Z,72.65
2023-05-20T02:23:06.111Z,72.72
2023-05-20T02:25:39.230Z,73.00
2023-05-20T02:28:10.911Z,73.23
2023-05-20T02:30:41.858Z,73.14
2023-05-20T02:33:12.583Z,73.40
2023-05-20T02:35:43.456Z,74.05
2023-05-20T02:38:14.186Z,73.86
2023-05-20T02:40:50.413Z,75.25
2023-05-20T02:43:20.948Z,75.07
2023-05-20T02:45:51.740Z,75.70
2023-05-20T02:48:22.304Z,75.51
2023-05-20T02:50:53.326Z,76.10
2023-05-20T02:53:23.539Z,76.33
2023-05-20T02:55:56.781Z,76.44
2023-05-20T02:58:27.927Z,77.17
2023-05-20T03:00:58.861Z,76.84
2023-05-20T03:03:30.200Z,76.42
2023-05-20T03:06:00.650Z,76.41
2023-05-20T03:08:31.177Z,76.42
2023-05-20T03:11:05.572Z,76.71
2023-05-20T03:13:37.839Z,76.73
2023-05-20T03:16:08.959Z,77.09
2023-05-20T03:18:39.590Z,76.84
2023-05-20T03:21:10.125Z,77.54
2023-05-20T03:23:40.605Z,77.51
2023-05-20T03:26:14.734Z,77.94
2023-05-20T03:28:45.268Z,77.90
2023-05-20T03:31:16.327Z,78.30
2023-05-20T03:33:46.973Z,80.08
2023-05-20T03:36:18.055Z,81.03
2023-05-20T03:38:48.652Z,80.32
2023-05-20T03:41:22.583Z,79.91
2023-05-20T03:43:53.273Z,79.75
2023-05-20T03:46:23.884Z,79.46
2023-05-20T03:48:54.511Z,79.64
2023-05-20T03:51:25.092Z,79.28
2023-05-20T03:53:56.649Z,78.92
2023-05-20T03:56:29.767Z,78.59
2023-05-20T03:59:00.508Z,78.64
2023-05-20T04:01:32.325Z,78.40
2023-05-20T04:04:03.145Z,77.90
2023-05-20T04:06:34.489Z,77.64
2023-05-20T04:09:05.210Z,77.30
2023-05-20T04:11:38.357Z,77.05
2023-05-20T04:14:08.882Z,77.12
2023-05-20T04:16:39.763Z,77.59
2023-05-20T04:19:11.148Z,77.84
2023-05-20T04:21:41.857Z,78.03
2023-05-20T04:24:12.485Z,77.86
2023-05-20T04:26:45.767Z,77.74
2023-05-20T04:29:16.299Z,77.75
2023-05-20T04:31:46.941Z,77.54
2023-05-20T04:34:19.758Z,77.98
2023-05-20T04:36:52.340Z,77.71
2023-05-20T04:39:23.124Z,77.56
2023-05-20T04:41:59.938Z,77.51
2023-05-20T04:44:31.203Z,77.28
2023-05-20T04:47:01.870Z,77.10
2023-05-20T04:49:32.417Z,77.10
2023-05-20T04:52:03.840Z,77.07
2023-05-20T04:54:34.915Z,77.64
2023-05-20T04:57:08.558Z,77.52
2023-05-20T04:59:39.280Z,77.71
2023-05-20T05:02:09.782Z,77.80
2023-05-20T05:04:41.973Z,77.38
2023-05-20T05:07:12.566Z,76.71
2023-05-20T05:09:43.117Z,76.25
2023-05-20T05:12:16.333Z,75.91
2023-05-20T05:14:47.548Z,75.06
2023-05-20T05:17:18.722Z,74.95
2023-05-20T05:19:49.252Z,74.89
2023-05-20T05:22:19.773Z,74.61
2023-05-20T05:24:50.307Z,73.43
2023-05-20T05:27:23.511Z,73.53
2023-05-20T05:29:54.276Z,72.97
2023-05-20T05:32:24.928Z,73.04
2023-05-20T05:34:55.547Z,72.86
2023-05-20T05:37:26.597Z,72.60
2023-05-20T05:39:57.129Z,72.32
2023-05-20T05:42:30.283Z,72.06
2023-05-20T05:45:01.058Z,71.62
2023-05-20T05:47:32.980Z,71.89
2023-05-20T05:50:04.184Z,71.26
2023-05-20T05:52:36.964Z,71.46
2023-05-20T05:55:11.599Z,71.35
2023-05-20T05:57:45.076Z,71.39
2023-05-20T06:00:20.027Z,70.93
2023-05-20T06:02:51.003Z,70.93
2023-05-20T06:05:35.050Z,70.86
2023-05-20T06:08:05.915Z,71.26
2023-05-20T06:10:37.963Z,70.83
2023-05-20T06:13:11.339Z,71.29
2023-05-20T06:15:43.530Z,70.61
2023-05-20T06:18:14.018Z,71.17
2023-05-20T06:20:44.748Z,70.96
2023-05-20T06:23:15.334Z,70.70
2023-05-20T06:26:04.478Z,70.48
2023-05-20T06:28:38.314Z,70.07
2023-05-20T06:31:09.466Z,70.10
2023-05-20T06:33:40.457Z,69.46
2023-05-20T06:36:14.664Z,69.08
2023-05-20T06:38:45.189Z,68.93
2023-05-20T06:41:17.965Z,68.76
2023-05-20T06:43:53.241Z,68.68
2023-05-20T06:46:42.432Z,68.07
2023-05-20T06:49:16.501Z,67.17
2023-05-20T06:51:47.178Z,66.79
2023-05-20T06:54:17.773Z,66.54
2023-05-20T06:56:48.761Z,66.21
2023-05-20T06:59:21.935Z,66.01
2023-05-20T07:01:52.554Z,65.32
2023-05-20T07:04:23.121Z,65.31
2023-05-20T07:06:53.727Z,63.91
2023-05-20T07:09:24.360Z,63.33
2023-05-20T07:11:54.980Z,63.24
2023-05-20T07:14:28.170Z,62.02
2023-05-20T07:16:59.108Z,61.37
2023-05-20T07:19:29.922Z,60.25
2023-05-20T07:22:00.172Z,58.89
2023-05-20T07:24:57.167Z,59.52
2023-05-20T07:27:27.675Z,58.63
2023-05-20T07:30:01.015Z,58.09
2023-05-20T07:32:31.690Z,56.84
2023-05-20T07:35:02.788Z,57.60
2023-05-20T07:37:33.453Z,57.25
2023-05-20T07:40:05.735Z,57.78
2023-05-20T07:42:36.271Z,56.69
2023-05-20T07:45:11.857Z,56.53
2023-05-20T07:47:42.649Z,55.75
2023-05-20T07:50:14.386Z,55.13
2023-05-20T07:52:56.086Z,56.81
2023-05-20T07:55:30.092Z,56.08
2023-05-20T07:58:01.023Z,55.09
2023-05-20T08:00:34.502Z,53.76
2023-05-20T08:03:08.665Z,52.06
2023-05-20T08:05:58.061Z,51.47
2023-05-20T08:08:30.806Z,51.31
2023-05-20T08:11:07.633Z,51.42
2023-05-20T08:13:38.328Z,51.50
2023-05-20T08:16:12.063Z,50.66
2023-05-20T08:18:42.991Z,49.64
2023-05-20T08:21:16.183Z,49.01
2023-05-20T08:23:46.818Z,48.31
2023-05-20T08:26:17.164Z,48.20
2023-05-20T08:28:48.687Z,47.04
2023-05-20T08:31:23.370Z,46.30
2023-05-20T08:33:54.374Z,46.14
2023-05-20T08:36:24.929Z,44.76
2023-05-20T08:38:56.017Z,43.78
2023-05-20T08:41:27.001Z,42.46
2023-05-20T08:43:58.317Z,41.19
2023-05-20T08:46:31.844Z,39.62
2023-05-20T08:49:03.069Z,39.33
2023-05-20T08:51:36.729Z,39.43
2023-05-20T08:54:07.468Z,37.95
2023-05-20T08:56:39.472Z,38.02
2023-05-20T08:59:10.067Z,37.65
2023-05-20T09:01:46.115Z,37.92
2023-05-20T09:04:16.679Z,37.67
2023-05-20T09:06:48.050Z,37.41
2023-05-20T09:09:19.147Z,37.16
2023-05-20T09:11:49.693Z,35.84
2023-05-20T09:14:20.221Z,36.13
2023-05-20T09:16:54.690Z,35.21
2023-05-20T09:19:26.572Z,34.92
2023-05-20T09:21:58.655Z,34.38
2023-05-20T09:24:30.138Z,34.43
2023-05-20T09:27:01.252Z,35.14
2023-05-20T09:29:31.817Z,35.58
2023-05-20T09:32:05.995Z,34.42
2023-05-20T09:34:37.004Z,33.79
2023-05-20T09:37:10.401Z,34.37
2023-05-20T09:39:48.651Z,33.56
2023-05-20T09:42:26.668Z,33.16
2023-05-20T09:44:58.225Z,33.69
2023-05-20T09:47:31.754Z,33.87
2023-05-20T09:50:04.146Z,34.08
2023-05-20T09:52:34.878Z,33.89
2023-05-20T09:55:07.748Z,33.77
2023-05-20T09:57:40.126Z,34.19
2023-05-20T10:00:13.881Z,33.32
2023-05-20T10:02:50.271Z,33.64
2023-05-20T10:05:24.542Z,33.50
2023-05-20T10:08:45.675Z,33.83
2023-05-20T10:11:25.505Z,34.19
2023-05-20T10:14:25.360Z,33.56
2023-05-20T10:17:09.182Z,34.49
2023-05-20T10:19:42.467Z,34.13
2023-05-20T10:22:14.365Z,34.03
2023-05-20T10:24:47.065Z,32.53
2023-05-20T10:27:20.937Z,33.50
2023-05-20T10:29:55.076Z,32.81
2023-05-20T10:32:31.489Z,33.70
2023-05-20T10:35:07.128Z,33.44
2023-05-20T10:37:45.586Z,33.12
2023-05-20T10:40:19.129Z,33.10
2023-05-20T10:42:49.750Z,33.25
2023-05-20T10:45:32.988Z,32.63
2023-05-20T10:48:03.746Z,31.70
2023-05-20T10:50:43.509Z,31.93
2023-05-20T10:53:32.262Z,31.73
2023-05-20T10:56:04.387Z,30.81
2023-05-20T10:58:41.948Z,31.54
2023-05-20T11:01:14.458Z,31.42
2023-05-20T11:03:47.248Z,31.02
2023-05-20T11:06:22.162Z,30.60
2023-05-20T11:08:52.675Z,30.92
2023-05-20T11:11:23.397Z,30.85
2023-05-20T11:13:56.815Z,30.94
2023-05-20T11:16:27.648Z,30.16
2023-05-20T11:18:58.210Z,30.51
2023-05-20T11:21:31.597Z,29.90
2023-05-20T11:24:02.096Z,29.75
2023-05-20T11:26:33.580Z,28.70
2023-05-20T11:29:05.020Z,28.53
2023-05-20T11:31:35.927Z,28.47
2023-05-20T11:34:06.450Z,28.26
2023-05-20T11:36:44.675Z,28.24
2023-05-20T11:39:16.470Z,27.02
2023-05-20T11:41:47.184Z,25.97
2023-05-20T11:44:17.653Z,27.31
2023-05-20T11:46:51.025Z,27.31
2023-05-20T11:49:21.557Z,26.71
2023-05-20T11:51:55.048Z,26.74
2023-05-20T11:54:27.099Z,26.73
2023-05-20T11:56:58.728Z,25.84
2023-05-20T11:59:29.911Z,28.20
2023-05-20T12:02:00.536Z,27.31
2023-05-20T12:04:31.097Z,26.53
2023-05-20T12:07:04.441Z,26.50
2023-05-20T12:09:34.949Z,27.81
2023-05-20T12:12:05.419Z,30.17
2023-05-20T12:14:35.903Z,30.47
2023-05-20T12:17:06.453Z,29.07
2023-05-20T12:19:38.315Z,28.45
2023-05-20T12:22:13.051Z,27.85
2023-05-20T12:24:43.584Z,27.49
2023-05-20T12:27:14.113Z,27.08
2023-05-20T12:29:44.568Z,26.35
2023-05-20T12:32:15.217Z,26.11
2023-05-20T12:34:45.865Z,26.46
2023-05-20T12:37:18.985Z,25.48
2023-05-20T12:39:49.530Z,26.22
2023-05-20T12:42:19.987Z,27.37
2023-05-20T12:44:50.453Z,27.40
2023-05-20T12:47:21.024Z,28.50
2023-05-20T12:49:51.623Z,29.53
2023-05-20T12:52:24.692Z,30.99
2023-05-20T12:54:55.229Z,32.23
2023-05-20T12:57:26.103Z,32.96
2023-05-20T12:59:56.913Z,33.31
2023-05-20T13:02:27.490Z,33.79
2023-05-20T13:04:58.101Z,32.43
2023-05-20T13:07:32.244Z,34.02
2023-05-20T13:10:03.104Z,36.46
2023-05-20T13:12:33.643Z,38.18
2023-05-20T13:15:04.579Z,38.56
2023-05-20T13:17:35.186Z,35.84
2023-05-20T13:20:06.821Z,36.09
2023-05-20T13:22:40.020Z,37.69
2023-05-20T13:25:12.226Z,35.14
2023-05-20T13:27:47.980Z,32.05
2023-05-20T13:30:18.497Z,29.96
2023-05-20T13:32:49.167Z,28.87
2023-05-20T13:35:20.186Z,30.81
2023-05-20T13:37:53.283Z,32.72
2023-05-20T13:40:24.177Z,30.95
2023-05-20T13:42:55.061Z,29.92
2023-05-20T13:45:25.908Z,32.80
2023-05-20T13:47:56.558Z,33.53
2023-05-20T13:50:27.133Z,33.05
2023-05-20T13:53:00.291Z,32.60
2023-05-20T13:55:31.940Z,32.33
2023-05-20T13:58:02.394Z,31.96
2023-05-20T14:00:33.225Z,30.43
2023-05-20T14:03:05.031Z,29.10
2023-05-20T14:05:38.961Z,29.86
2023-05-20T14:08:12.108Z,28.99
2023-05-20T14:10:42.890Z,29.19
2023-05-20T14:13:13.432Z,28.30
2023-05-20T14:15:44.113Z,28.50
2023-05-20T14:18:14.653Z,27.77
2023-05-20T14:20:45.632Z,28.87
2023-05-20T14:23:18.810Z,29.46
2023-05-20T14:25:52.744Z,31.36
2023-05-20T14:28:23.224Z,31.82
2023-05-20T14:30:54.717Z,31.38
2023-05-20T14:33:25.254Z,32.05
2023-05-20T14:35:55.771Z,34.10
2023-05-20T14:38:28.997Z,35.08
2023-05-20T14:40:59.611Z,36.76
2023-05-20T14:43:31.610Z,38.16
2023-05-20T14:46:02.126Z,39.21
2023-05-20T14:48:32.755Z,40.47
2023-05-20T14:51:03.262Z,41.12
2023-05-20T14:53:36.351Z,42.44
2023-05-20T14:56:07.299Z,43.27
2023-05-20T14:58:38.761Z,44.97
2023-05-20T15:01:09.382Z,45.51
2023-05-20T15:03:40.053Z,46.07
2023-05-20T15:06:11.111Z,46.61
2023-05-20T15:08:44.577Z,46.54
2023-05-20T15:11:15.068Z,46.09
2023-05-20T15:13:46.713Z,45.60
2023-05-20T15:16:19.548Z,44.78
2023-05-20T15:18:50.174Z,45.19
2023-05-20T15:21:21.628Z,45.76
2023-05-20T15:23:55.687Z,46.55
2023-05-20T15:26:27.100Z,47.54
2023-05-20T15:28:57.585Z,46.99
2023-05-20T15:31:28.354Z,47.37
2023-05-20T15:33:59.051Z,48.30
2023-05-20T15:36:29.705Z,48.47
2023-05-20T15:39:02.839Z,49.21
2023-05-20T15:41:34.984Z,48.94
2023-05-20T15:44:05.642Z,49.11
2023-05-20T15:46:36.380Z,49.24
2023-05-20T15:49:07.016Z,49.40
2023-05-20T15:51:37.283Z,49.63
2023-05-20T15:54:10.446Z,50.60
2023-05-20T15:56:40.986Z,50.74
2023-05-20T15:59:11.601Z,51.09
2023-05-20T16:01:42.261Z,51.31
2023-05-20T16:04:13.388Z,51.63
2023-05-20T16:06:44.795Z,51.42
2023-05-20T16:09:18.562Z,51.81
2023-05-20T16:11:49.862Z,51.73
2023-05-20T16:14:20.724Z,51.92
2023-05-20T16:16:56.019Z,52.09
2023-05-20T16:19:26.863Z,52.12
2023-05-20T16:21:57.667Z,52.12
2023-05-20T16:24:30.832Z,52.05
2023-05-20T16:27:01.361Z,52.32
2023-05-20T16:29:31.791Z,52.80
2023-05-20T16:32:02.779Z,52.63
2023-05-20T16:34:33.434Z,52.26
2023-05-20T16:37:04.051Z,52.10
2023-05-20T16:39:37.200Z,52.58
2023-05-20T16:42:09.387Z,52.64
2023-05-20T16:44:40.162Z,53.15
2023-05-20T16:47:11.844Z,53.15
2023-05-20T16:49:42.365Z,53.02
2023-05-20T16:52:12.755Z,53.27
2023-05-20T16:54:46.123Z,53.72
2023-05-20T16:57:18.996Z,53.68
2023-05-20T16:59:49.649Z,53.67
2023-05-20T17:02:20.288Z,53.94
2023-05-20T17:04:51.288Z,54.64
2023-05-20T17:07:21.828Z,54.87
2023-05-20T17:09:54.651Z,54.61
2023-05-20T17:12:25.330Z,54.64
2023-05-20T17:14:55.809Z,54.75
2023-05-20T17:17:25.989Z,55.12
2023-05-20T17:19:56.450Z,54.60
2023-05-20T17:22:26.678Z,55.63
2023-05-20T17:24:59.770Z,55.14
2023-05-20T17:27:30.397Z,55.27
2023-05-20T17:30:01.090Z,55.62
2023-05-20T17:32:31.673Z,55.50
2023-05-20T17:35:02.306Z,55.28
2023-05-20T17:37:32.882Z,55.65
2023-05-20T17:40:06.939Z,55.89
2023-05-20T17:42:37.429Z,55.54
2023-05-20T17:45:09.802Z,55.67
2023-05-20T17:47:40.344Z,55.87
2023-05-20T17:50:14.799Z,56.31
2023-05-20T17:52:45.295Z,56.40
2023-05-20T17:55:19.293Z,56.65
2023-05-20T17:57:49.764Z,56.69
2023-05-20T18:00:21.796Z,57.05
2023-05-20T18:02:56.399Z,57.16
2023-05-20T18:05:27.081Z,56.85
2023-05-20T18:07:57.600Z,57.27
2023-05-20T18:10:30.924Z,57.61
2023-05-20T18:13:01.595Z,57.79
2023-05-20T18:15:31.823Z,57.89
2023-05-20T18:18:02.748Z,58.24
2023-05-20T18:20:33.500Z,58.63
2023-05-20T18:23:04.184Z,58.37
2023-05-20T18:25:37.166Z,58.36
2023-05-20T18:28:09.061Z,58.60
2023-05-20T18:30:39.575Z,58.70
2023-05-20T18:33:10.141Z,59.26
2023-05-20T18:35:40.356Z,59.80
2023-05-20T18:38:11.062Z,59.60
2023-05-20T18:40:44.216Z,60.14
2023-05-20T18:43:14.722Z,60.22
2023-05-20T18:45:45.373Z,60.57
2023-05-20T18:48:25.627Z,60.98
2023-05-20T18:50:58.785Z,60.87
2023-05-20T18:53:29.311Z,61.44
2023-05-20T18:56:03.483Z,61.65
2023-05-20T18:58:34.087Z,62.05
2023-05-20T19:01:04.539Z,62.35
2023-05-20T19:03:35.131Z,62.51
2023-05-20T19:06:05.617Z,63.05
2023-05-20T19:08:36.215Z,63.08
2023-05-20T19:11:09.455Z,63.08
2023-05-20T19:13:40.098Z,63.23
2023-05-20T19:16:11.380Z,63.50
2023-05-20T19:18:42.008Z,63.39
2023-05-20T19:21:12.577Z,63.42
2023-05-20T19:23:43.211Z,63.37
2023-05-20T19:26:16.143Z,64.14
2023-05-20T19:28:46.982Z,64.56
2023-05-20T19:31:21.375Z,64.37
2023-05-20T19:33:52.474Z,64.58
2023-05-20T19:36:23.066Z,64.69
2023-05-20T19:38:53.708Z,65.18
2023-05-20T19:41:26.744Z,65.24
2023-05-20T19:43:57.291Z,65.31
2023-05-20T19:46:27.913Z,65.48
2023-05-20T19:48:58.201Z,65.98
2023-05-20T19:51:28.862Z,66.29
2023-05-20T19:53:59.416Z,66.22
2023-05-20T19:56:32.599Z,66.38
2023-05-20T19:59:04.068Z,66.53
2023-05-20T20:01:34.698Z,66.80
2023-05-20T20:04:05.280Z,67.49
2023-05-20T20:06:36.064Z,67.46
2023-05-20T20:09:06.312Z,67.77
2023-05-20T20:11:39.439Z,67.89
2023-05-20T20:14:10.157Z,68.35
2023-05-20T20:16:41.918Z,67.88
2023-05-20T20:19:12.778Z,68.12
2023-05-20T20:21:43.387Z,67.97
2023-05-20T20:24:14.009Z,68.17
2023-05-20T20:26:47.740Z,68.24
2023-05-20T20:29:18.526Z,68.15
2023-05-20T20:31:48.750Z,68.39
2023-05-20T20:34:19.239Z,68.52
2023-05-20T20:36:51.478Z,68.47
2023-05-20T20:39:25.225Z,68.43
2023-05-20T20:41:59.044Z,68.91
2023-05-20T20:44:29.667Z,69.02
2023-05-20T20:47:00.248Z,68.90
2023-05-20T20:49:32.315Z,69.05
2023-05-20T20:52:03.521Z,68.58
2023-05-20T20:54:34.408Z,68.35
2023-05-20T20:57:08.026Z,68.68
2023-05-20T20:59:38.610Z,68.48
2023-05-20T21:02:09.997Z,68.84
2023-05-20T21:04:41.588Z,69.00
2023-05-20T21:07:12.280Z,69.15
2023-05-20T21:09:42.805Z,69.27
2023-05-20T21:12:16.143Z,69.53
2023-05-20T21:14:47.049Z,69.85
2023-05-20T21:17:17.782Z,69.64
2023-05-20T21:19:48.031Z,69.90
2023-05-20T21:22:18.469Z,70.07
2023-05-20T21:24:48.925Z,70.27
2023-05-20T21:27:22.309Z,70.22
2023-05-20T21:29:52.896Z,70.22
2023-05-20T21:32:23.441Z,70.61
2023-05-20T21:34:54.906Z,70.78
2023-05-20T21:37:26.844Z,71.08
2023-05-20T21:39:57.335Z,70.92
2023-05-20T21:42:30.442Z,71.05
2023-05-20T21:45:00.925Z,70.97
2023-05-20T21:47:31.638Z,70.78
2023-05-20T21:50:02.275Z,70.82
2023-05-20T21:52:33.280Z,71.56
2023-05-20T21:55:03.861Z,71.81
2023-05-20T21:57:37.038Z,71.86
2023-05-20T22:00:10.903Z,72.13
2023-05-20T22:02:41.670Z,71.84
2023-05-20T22:05:13.865Z,71.17
2023-05-20T22:07:44.644Z,71.23
2023-05-20T22:10:17.772Z,70.53
2023-05-20T22:12:51.035Z,69.99
2023-05-20T22:15:21.867Z,69.44
2023-05-20T22:17:52.044Z,69.11
2023-05-20T22:20:22.670Z,68.66
2023-05-20T22:22:53.196Z,68.19
2023-05-20T22:25:23.824Z,67.83
2023-05-20T22:27:57.260Z,67.01
2023-05-20T22:30:28.074Z,66.86
2023-05-20T22:32:58.617Z,66.38
2023-05-20T22:35:29.343Z,65.96
2023-05-20T22:38:00.589Z,65.96
2023-05-20T22:40:31.293Z,65.67
2023-05-20T22:43:04.533Z,65.48
2023-05-20T22:45:35.421Z,65.05
2023-05-20T22:48:06.679Z,64.75
2023-05-20T22:50:37.618Z,64.94
2023-05-20T22:53:08.141Z,65.01
2023-05-20T22:55:38.940Z,64.78
2023-05-20T22:58:12.559Z,64.74
2023-05-20T23:00:44.665Z,64.42
2023-05-20T23:03:15.255Z,64.28
2023-05-20T23:05:45.870Z,64.31
2023-05-20T23:08:16.389Z,64.40
2023-05-20T23:10:46.852Z,64.43
2023-05-20T23:13:19.977Z,64.10
2023-05-20T23:15:50.450Z,64.20
2023-05-20T23:18:21.084Z,64.24
2023-05-20T23:20:51.356Z,64.25
2023-05-20T23:23:30.294Z,64.66
2023-05-20T23:26:02.445Z,64.61
2023-05-20T23:28:35.606Z,64.59
2023-05-20T23:31:06.193Z,64.62
2023-05-20T23:33:36.770Z,64.94
2023-05-20T23:36:09.280Z,64.98
2023-05-20T23:38:40.126Z,64.87
2023-05-20T23:41:10.257Z,65.40
2023-05-20T23:43:43.239Z,65.12
2023-05-20T23:46:13.733Z,65.27
2023-05-20T23:48:45.003Z,65.37
2023-05-20T23:51:16.527Z,65.31
2023-05-20T23:53:47.789Z,65.66
2023-05-20T23:56:18.300Z,65.65
2023-05-20T23:58:51.368Z,65.71
